Time;durP1;ratioP1;P1;durP2;ratioP2;P2;SDS_P1;SDS_P2;PMS_P1;PMS_P2;Temp;Humidity;BMP_temperature;BMP_pressure;BME280_temperature;BME280_humidity;BME280_pressure;Samples;Min_cycle;Max_cycle;Signal;HPM_P1;HPM_P2
2022/10/11 00:00:26;;;;;;;31.45;19.02;;;;;;;8.91;87.41;98311.98;1727537;82;20972;-76
2022/10/11 00:02:56;;;;;;;32.23;20.17;;;;;;;8.93;87.58;98314.14;1726667;82;20976;-76
2022/10/11 00:05:23;;;;;;;34.13;20.95;;;;;;;9.00;87.84;98311.41;1725141;82;21079;-77
2022/10/11 00:07:50;;;;;;;30.45;18.73;;;;;;;9.08;87.97;98313.45;1725951;82;21031;-76
2022/10/11 00:10:18;;;;;;;31.20;18.25;;;;;;;9.14;87.91;98309.83;1725534;82;21016;-76
2022/10/11 00:12:45;;;;;;;30.40;19.42;;;;;;;9.15;88.38;98308.48;1727038;82;20976;-76
2022/10/11 00:15:17;;;;;;;29.70;18.55;;;;;;;9.22;88.66;98310.56;1726995;82;21434;-76
2022/10/11 00:17:47;;;;;;;34.18;18.30;;;;;;;9.28;88.48;98306.91;1727364;82;20987;-76
2022/10/11 00:20:16;;;;;;;34.43;19.25;;;;;;;9.32;88.44;98306.84;1727264;82;21051;-77
2022/10/11 00:22:42;;;;;;;30.43;19.80;;;;;;;9.35;88.29;98301.94;1727343;82;21479;-77
2022/10/11 00:25:11;;;;;;;31.25;19.35;;;;;;;9.41;88.43;98304.45;1726978;82;21004;-76
2022/10/11 00:27:38;;;;;;;31.50;19.57;;;;;;;9.47;88.35;98304.80;1725280;82;21035;-76
2022/10/11 00:30:09;;;;;;;35.90;22.32;;;;;;;9.49;88.27;98304.30;1727506;82;21031;-76
2022/10/11 00:32:37;;;;;;;32.23;20.30;;;;;;;9.54;88.47;98306.39;1727504;82;20964;-76
2022/10/11 00:35:07;;;;;;;28.98;18.23;;;;;;;9.55;88.42;98302.84;1727550;82;21016;-76
2022/10/11 00:37:37;;;;;;;27.85;17.73;;;;;;;9.55;88.28;98302.84;1726646;82;20976;-77
2022/10/11 00:40:09;;;;;;;28.45;17.70;;;;;;;9.58;88.25;98302.79;1727688;82;20988;-76
2022/10/11 00:42:35;;;;;;;26.65;16.45;;;;;;;9.59;88.31;98301.03;1727649;82;20968;-76
2022/10/11 00:45:30;;;;;;;27.17;17.02;;;;;;;9.57;88.01;98300.17;1727728;83;21061;-76
2022/10/11 00:48:08;;;;;;;26.57;17.00;;;;;;;9.54;87.77;98299.78;1727799;83;20984;-76
2022/10/11 00:50:36;;;;;;;28.73;17.35;;;;;;;9.51;88.09;98298.54;1727548;82;20996;-76
2022/10/11 00:53:10;;;;;;;29.42;18.70;;;;;;;9.44;88.14;98286.33;1727858;83;21404;-76
2022/10/11 00:55:44;;;;;;;26.25;18.40;;;;;;;9.42;88.33;98288.14;1727353;83;21422;-76
2022/10/11 00:58:14;;;;;;;29.18;19.15;;;;;;;9.44;88.03;98287.64;1727834;83;21026;-76
2022/10/11 01:00:41;;;;;;;26.35;18.02;;;;;;;9.45;87.85;98285.41;1746087;82;20991;-76
2022/10/11 01:03:10;;;;;;;28.92;18.12;;;;;;;9.46;88.11;98284.50;1728807;82;20988;-76
2022/10/11 01:05:39;;;;;;;29.50;18.82;;;;;;;9.47;87.81;98291.09;1741070;81;21076;-76
2022/10/11 01:08:07;;;;;;;28.98;19.32;;;;;;;9.48;87.88;98289.33;1748729;82;22157;-76
2022/10/11 01:10:34;;;;;;;31.40;18.48;;;;;;;9.49;87.62;98287.98;1739558;82;21008;-76
2022/10/11 01:13:12;;;;;;;38.75;21.77;;;;;;;9.45;87.53;98280.13;1730876;83;21011;-76
2022/10/11 01:15:47;;;;;;;35.65;20.85;;;;;;;9.43;88.07;98279.30;1730396;83;20999;-76
2022/10/11 01:18:42;;;;;;;35.35;21.75;;;;;;;9.41;88.00;98277.11;1730664;83;21031;-76
2022/10/11 01:21:29;;;;;;;38.78;22.07;;;;;;;9.42;87.75;98276.23;1730709;83;21015;-76
2022/10/11 01:24:21;;;;;;;47.05;23.77;;;;;;;9.38;88.09;98277.61;1730632;83;21015;-76
2022/10/11 01:27:05;;;;;;;48.98;24.40;;;;;;;9.37;88.91;98275.88;1729742;82;20985;-76
2022/10/11 01:29:42;;;;;;;;;;;;;;;9.33;89.46;98274.19;1734460;82;21001;-76
2022/10/11 01:32:26;;;;;;;44.98;24.45;;;;;;;9.32;89.16;98271.56;1730750;83;20112;-76
2022/10/11 01:35:00;;;;;;;42.62;23.92;;;;;;;9.31;88.60;98265.86;1710284;83;21008;-75
2022/10/11 01:37:41;;;;;;;53.55;26.40;;;;;;;9.31;89.22;98275.12;1741732;82;21390;-76
2022/10/11 01:40:31;;;;;;;51.60;25.43;;;;;;;9.32;88.62;98272.45;1731011;83;21453;-76
2022/10/11 01:42:59;;;;;;;48.45;24.80;;;;;;;9.31;88.58;98265.86;1730803;83;21033;-76
2022/10/11 01:45:26;;;;;;;61.28;27.58;;;;;;;9.34;89.78;98270.63;1730792;83;21035;-76
2022/10/11 01:48:10;;;;;;;63.68;26.57;;;;;;;9.38;89.62;98271.00;1743435;82;21000;-76
2022/10/11 01:50:49;;;;;;;76.28;28.73;;;;;;;9.44;89.59;98271.77;1743486;82;21033;-77
2022/10/11 01:53:35;;;;;;;59.20;27.62;;;;;;;9.49;89.27;98269.91;1731142;83;21011;-76
2022/10/11 01:56:27;;;;;;;52.03;26.05;;;;;;;9.56;89.57;98270.65;1731346;82;20953;-76
2022/10/11 01:59:20;;;;;;;50.60;24.05;;;;;;;9.62;89.60;98264.78;1737677;82;21112;-76
2022/10/11 02:02:17;;;;;;;58.52;23.55;;;;;;;9.67;89.42;98273.92;1731000;82;21074;-76
2022/10/11 02:05:26;;;;;;;48.58;23.87;;;;;;;9.74;89.68;98268.94;1730691;82;20976;-76
2022/10/11 02:08:10;;;;;;;49.77;24.12;;;;;;;9.81;89.45;98267.47;1733045;82;20991;-76
2022/10/11 02:10:50;;;;;;;48.48;21.87;;;;;;;9.82;89.17;98267.88;1738799;82;21067;-76
2022/10/11 02:13:40;;;;;;;49.20;22.02;;;;;;;9.83;89.17;98270.50;1730508;83;21087;-75
2022/10/11 02:16:11;;;;;;;42.13;20.92;;;;;;;9.88;89.58;98262.00;1731136;82;20968;-76
2022/10/11 02:18:46;;;;;;;41.20;20.72;;;;;;;9.90;89.57;98261.53;1742970;82;21476;-77
2022/10/11 02:21:17;;;;;;;44.55;21.02;;;;;;;9.92;89.33;98261.47;1742677;82;21004;-77
2022/10/11 02:24:02;;;;;;;41.92;20.97;;;;;;;9.92;89.59;98260.15;1731076;83;22262;-76
2022/10/11 02:26:32;;;;;;;51.73;20.35;;;;;;;9.92;89.49;98259.30;1706201;82;21000;-76
2022/10/11 02:29:03;;;;;;;35.25;18.27;;;;;;;9.90;89.41;98256.23;1732389;80;21066;-77
2022/10/11 02:31:33;;;;;;;45.20;19.30;;;;;;;9.95;89.58;98259.20;1745601;81;20953;-77
2022/10/11 02:34:23;;;;;;;36.45;20.08;;;;;;;9.93;89.46;98258.39;1737668;82;20985;-77
2022/10/11 02:37:19;;;;;;;36.88;19.37;;;;;;;9.90;89.59;98255.36;1733412;82;20979;-77
2022/10/11 02:39:54;;;;;;;35.92;20.12;;;;;;;9.94;89.78;98254.83;1737516;82;21036;-77
2022/10/11 02:42:25;;;;;;;33.53;19.87;;;;;;;9.92;89.52;98244.27;1730888;83;20995;-76
2022/10/11 02:45:00;;;;;;;44.53;21.00;;;;;;;9.96;89.91;98238.47;1730424;83;20977;-77
2022/10/11 02:47:29;;;;;;;31.97;20.45;;;;;;;9.96;89.73;98245.09;1730900;83;21051;-77
2022/10/11 02:50:00;;;;;;;37.42;19.95;;;;;;;9.93;89.93;98250.44;1710395;82;20993;-77
2022/10/11 02:52:27;;;;;;;34.70;21.50;;;;;;;9.96;90.07;98255.20;1720567;82;20995;-77
2022/10/11 02:54:54;;;;;;;40.60;21.42;;;;;;;9.95;89.67;98253.47;1730097;83;20956;-77
2022/10/11 02:57:21;;;;;;;41.28;23.20;;;;;;;9.92;89.53;98250.89;1728783;83;21038;-76
2022/10/11 02:59:49;;;;;;;45.78;23.20;;;;;;;9.86;89.72;98248.39;1735172;82;21031;-77
2022/10/11 03:02:15;;;;;;;39.27;23.73;;;;;;;9.80;89.58;98241.44;1740960;82;21119;-77
2022/10/11 03:04:42;;;;;;;47.30;24.07;;;;;;;9.79;89.64;98244.15;1748545;82;21000;-77
2022/10/11 03:07:09;;;;;;;41.02;22.77;;;;;;;9.75;89.55;98241.56;1739579;82;21473;-77
2022/10/11 03:09:35;;;;;;;52.62;23.95;;;;;;;9.72;89.71;98246.91;1743010;82;20984;-77
2022/10/11 03:12:03;;;;;;;48.68;24.00;;;;;;;9.63;89.33;98243.14;1730658;83;21004;-77
2022/10/11 03:14:30;;;;;;;44.80;24.23;;;;;;;9.56;89.59;98250.80;1743402;82;20965;-76
2022/10/11 03:16:56;;;;;;;38.13;22.77;;;;;;;9.48;89.29;98248.32;1736566;82;21068;-75
2022/10/11 03:19:23;;;;;;;40.03;24.05;;;;;;;9.45;90.30;98249.70;1748524;82;21032;-76
2022/10/11 03:21:56;;;;;;;45.03;25.17;;;;;;;9.45;90.43;98255.87;1736115;82;20988;-75
2022/10/11 03:24:23;;;;;;;50.75;22.98;;;;;;;9.45;90.38;98251.91;1747001;82;21001;-76
2022/10/11 03:26:51;;;;;;;58.48;34.75;;;;;;;9.42;89.97;98252.43;1746530;82;21457;-76
2022/10/11 03:29:19;;;;;;;41.35;23.35;;;;;;;9.36;90.30;98245.04;1738839;82;21068;-76
2022/10/11 03:31:48;;;;;;;41.65;22.17;;;;;;;9.34;90.38;98250.80;1730733;83;20965;-76
2022/10/11 03:34:15;;;;;;;38.13;21.30;;;;;;;9.32;90.96;98246.00;1734328;82;21378;-76
2022/10/11 03:36:42;;;;;;;48.83;22.35;;;;;;;9.26;90.55;98250.07;1747739;82;21134;-76
2022/10/11 03:39:11;;;;;;;61.65;22.00;;;;;;;9.21;90.95;98244.00;1730572;83;21095;-76
2022/10/11 03:41:37;;;;;;;52.38;19.98;;;;;;;9.16;91.28;98248.52;1730739;83;21469;-76
2022/10/11 03:44:04;;;;;;;51.70;20.97;;;;;;;9.05;91.05;98252.71;1732644;82;20997;-76
2022/10/11 03:46:30;;;;;;;40.35;21.25;;;;;;;8.97;91.33;98251.54;1748657;82;20992;-76
2022/10/11 03:48:57;;;;;;;52.25;19.90;;;;;;;8.88;91.39;98249.92;1736006;82;20996;-76
2022/10/11 03:51:25;;;;;;;40.05;19.80;;;;;;;8.83;91.82;98250.02;1742839;82;20988;-76
2022/10/11 03:53:53;;;;;;;37.28;19.35;;;;;;;8.80;91.70;98251.85;1730853;83;21008;-76
2022/10/11 03:56:20;;;;;;;34.70;20.43;;;;;;;8.80;92.09;98249.20;1731543;82;20988;-75
2022/10/11 03:58:47;;;;;;;30.90;19.37;;;;;;;8.81;91.65;98250.48;1727654;83;21040;-76
2022/10/11 04:01:13;;;;;;;32.38;19.40;;;;;;;8.82;91.70;98243.00;1730848;83;20964;-75
2022/10/11 04:03:42;;;;;;;31.33;18.48;;;;;;;8.83;92.50;98256.63;1730328;81;21063;-76
2022/10/11 04:06:09;;;;;;;30.02;17.87;;;;;;;8.84;92.43;98252.19;1730613;81;21070;-76
2022/10/11 04:08:38;;;;;;;26.75;16.95;;;;;;;8.83;92.34;98255.73;1728153;82;21114;-76
2022/10/11 04:11:07;;;;;;;28.85;16.95;;;;;;;8.82;92.81;98256.21;1727664;82;20984;-75
2022/10/11 04:13:34;;;;;;;27.60;16.95;;;;;;;8.80;92.91;98258.46;1699332;83;21018;-75
2022/10/11 04:16:00;;;;;;;30.17;17.40;;;;;;;8.83;92.59;98253.09;1730762;82;20993;-75
2022/10/11 04:18:26;;;;;;;28.92;17.82;;;;;;;8.83;92.67;98248.70;1729538;82;21032;-75
2022/10/11 04:20:53;;;;;;;29.02;17.12;;;;;;;8.86;93.14;98257.02;1724818;82;20957;-75
2022/10/11 04:23:19;;;;;;;25.82;16.77;;;;;;;8.87;93.02;98256.55;1725050;83;20996;-75
2022/10/11 04:25:47;;;;;;;25.55;16.95;;;;;;;8.87;92.54;98252.58;1724627;82;21023;-75
2022/10/11 04:28:14;;;;;;;25.48;16.67;;;;;;;8.88;92.54;98258.31;1729599;82;21334;-75
2022/10/11 04:30:40;;;;;;;25.97;16.55;;;;;;;8.93;92.40;98255.98;1724750;82;20992;-75
2022/10/11 04:33:07;;;;;;;28.67;16.82;;;;;;;8.97;92.33;98251.07;1725096;82;20994;-75
2022/10/11 04:35:33;;;;;;;25.68;17.07;;;;;;;9.05;92.66;98253.56;1727688;82;21054;-75
2022/10/11 04:38:00;;;;;;;23.90;15.90;;;;;;;9.14;92.21;98252.54;1734255;82;20996;-75
2022/10/11 04:40:26;;;;;;;27.30;17.42;;;;;;;9.18;92.21;98252.02;1724514;82;21489;-75
2022/10/11 04:42:53;;;;;;;25.70;17.00;;;;;;;9.22;92.27;98252.38;1729535;82;20989;-75
2022/10/11 04:45:20;;;;;;;29.37;17.05;;;;;;;9.23;91.81;98256.30;1744038;82;20964;-75
2022/10/11 04:47:47;;;;;;;24.32;16.85;;;;;;;9.22;91.65;98255.87;1749114;81;21000;-75
2022/10/11 04:50:15;;;;;;;27.22;17.60;;;;;;;9.20;91.78;98262.98;1743222;82;20940;-75
2022/10/11 04:52:42;;;;;;;24.82;17.05;;;;;;;9.19;91.25;98257.72;1736102;82;21043;-75
2022/10/11 04:55:10;;;;;;;27.82;16.62;;;;;;;9.16;91.61;98253.36;1738020;82;21011;-75
2022/10/11 04:57:37;;;;;;;26.48;17.12;;;;;;;9.20;91.70;98259.45;1727154;83;21402;-75
2022/10/11 05:00:05;;;;;;;26.35;18.17;;;;;;;9.27;92.03;98260.21;1727511;83;20995;-74
2022/10/11 05:02:31;;;;;;;26.77;17.98;;;;;;;9.34;92.18;98267.98;1727723;83;21040;-76
2022/10/11 05:04:57;;;;;;;23.22;16.25;;;;;;;9.30;91.42;98266.30;1725641;83;20992;-75
2022/10/11 05:07:24;;;;;;;25.35;16.77;;;;;;;9.21;91.13;98273.98;1727794;83;21386;-75
2022/10/11 05:09:50;;;;;;;22.70;17.05;;;;;;;9.14;91.11;98276.77;1736186;82;21034;-75
2022/10/11 05:12:19;;;;;;;24.25;16.20;;;;;;;9.05;90.95;98278.68;1743319;82;21046;-75
2022/10/11 05:14:45;;;;;;;23.02;15.95;;;;;;;9.02;90.81;98278.77;1736427;82;22215;-75
2022/10/11 05:17:12;;;;;;;26.57;16.87;;;;;;;8.94;90.81;98274.94;1744884;82;20932;-75
2022/10/11 05:19:38;;;;;;;26.95;16.77;;;;;;;8.93;91.33;98269.20;1734701;82;21015;-75
2022/10/11 05:22:05;;;;;;;28.17;17.82;;;;;;;8.94;91.31;98263.05;1746592;82;20952;-75
2022/10/11 05:24:32;;;;;;;25.10;17.10;;;;;;;8.95;91.00;98267.86;1732374;83;21284;-75
2022/10/11 05:26:59;;;;;;;29.07;18.05;;;;;;;8.95;90.63;98267.42;1739000;82;20991;-75
2022/10/11 05:29:26;;;;;;;26.87;17.98;;;;;;;8.94;90.87;98267.01;1741849;82;21053;-75
2022/10/11 05:31:53;;;;;;;27.55;17.95;;;;;;;8.96;90.54;98276.20;1737229;82;20963;-75
2022/10/11 05:34:19;;;;;;;29.27;19.30;;;;;;;8.93;90.71;98275.81;1738327;82;21043;-75
2022/10/11 05:36:46;;;;;;;30.52;19.20;;;;;;;8.92;90.75;98279.80;1738817;82;21003;-75
2022/10/11 05:39:12;;;;;;;27.67;18.37;;;;;;;8.92;90.85;98277.16;1741342;82;21358;-75
2022/10/11 05:41:39;;;;;;;29.77;17.98;;;;;;;8.88;90.44;98288.71;1733294;82;20991;-76
2022/10/11 05:44:07;;;;;;;32.83;20.20;;;;;;;8.88;91.29;98295.32;1737632;82;21011;-76
2022/10/11 05:46:34;;;;;;;40.67;19.52;;;;;;;8.83;91.26;98296.70;1742579;82;21444;-74
2022/10/11 05:49:00;;;;;;;37.85;20.15;;;;;;;8.78;91.95;98288.88;1739006;82;20955;-74
2022/10/11 05:51:26;;;;;;;33.60;20.15;;;;;;;8.77;91.81;98295.06;1734520;82;21413;-74
2022/10/11 05:53:53;;;;;;;36.77;21.50;;;;;;;8.78;91.31;98299.44;1739217;82;21003;-74
2022/10/11 05:56:23;;;;;;;34.73;21.55;;;;;;;8.77;91.78;98292.86;1736008;82;21023;-74
2022/10/11 05:58:51;;;;;;;35.23;21.75;;;;;;;8.81;91.72;98287.95;1738176;82;20996;-74
2022/10/11 06:01:24;;;;;;;39.70;22.60;;;;;;;8.85;91.64;98293.13;1742184;82;20924;-75
2022/10/11 06:03:52;;;;;;;41.63;22.30;;;;;;;8.90;91.63;98301.44;1728150;82;21004;-75
2022/10/11 06:06:19;;;;;;;41.63;23.27;;;;;;;8.93;92.56;98301.39;1733843;82;20969;-75
2022/10/11 06:08:47;;;;;;;46.20;25.23;;;;;;;8.99;91.99;98295.98;1730130;82;21480;-75
2022/10/11 06:11:24;;;;;;;38.88;24.20;;;;;;;9.08;92.13;98298.91;1726340;82;21008;-75
2022/10/11 06:13:53;;;;;;;45.63;25.05;;;;;;;9.18;91.99;98289.04;1726477;82;21465;-76
2022/10/11 06:16:20;;;;;;;51.63;27.48;;;;;;;9.29;92.15;98295.42;1726195;82;21019;-75
2022/10/11 06:18:47;;;;;;;59.40;29.07;;;;;;;9.38;91.84;98293.48;1732063;82;20969;-75
2022/10/11 06:21:14;;;;;;;62.38;30.68;;;;;;;9.46;91.80;98300.38;1726570;81;20972;-77
2022/10/11 06:23:41;;;;;;;61.23;33.13;;;;;;;9.53;92.10;98302.02;1725145;82;21457;-73
2022/10/11 06:26:09;;;;;;;72.42;33.42;;;;;;;9.64;91.91;98311.06;1726586;82;20969;-73
2022/10/11 06:28:36;;;;;;;82.60;37.78;;;;;;;9.75;91.89;98301.55;1726422;82;20994;-74
2022/10/11 06:31:05;;;;;;;96.17;41.73;;;;;;;9.86;91.83;98305.30;1728806;82;20980;-74
2022/10/11 06:33:33;;;;;;;114.30;41.37;;;;;;;9.94;91.45;98311.31;1740248;82;20999;-75
2022/10/11 06:36:03;;;;;;;99.95;42.62;;;;;;;10.00;91.00;98310.28;1707437;83;21043;-75
2022/10/11 06:38:31;;;;;;;96.67;38.83;;;;;;;10.05;90.88;98318.99;1729014;82;21004;-74
2022/10/11 06:41:20;;;;;;;105.58;41.85;;;;;;;10.13;90.86;98322.35;1717050;82;20961;-74
2022/10/11 06:43:48;;;;;;;104.38;45.05;;;;;;;10.19;90.53;98321.35;1694484;83;21517;-75
2022/10/11 06:46:18;;;;;;;81.05;34.58;;;;;;;10.26;90.14;98327.39;1746399;82;20969;-75
2022/10/11 06:48:46;;;;;;;79.25;33.35;;;;;;;10.36;89.83;98322.28;1734315;82;21015;-74
2022/10/11 06:51:16;;;;;;;64.12;29.67;;;;;;;10.43;89.06;98315.07;1709505;82;21000;-74
2022/10/11 06:53:43;;;;;;;59.25;28.47;;;;;;;10.42;87.91;98328.76;1731588;82;20984;-74
2022/10/11 06:56:12;;;;;;;51.00;26.73;;;;;;;10.30;88.20;98332.56;1726565;82;21091;-74
2022/10/11 06:58:41;;;;;;;56.83;27.10;;;;;;;10.28;87.72;98334.83;1726892;82;20988;-74
2022/10/11 07:01:11;;;;;;;51.20;27.02;;;;;;;10.29;87.75;98333.48;1727825;82;21544;-74
2022/10/11 07:03:38;;;;;;;68.90;28.87;;;;;;;10.37;88.37;98337.27;1727001;82;21093;-75
2022/10/11 07:06:10;;;;;;;67.42;29.75;;;;;;;10.43;87.96;98339.80;1726913;82;21881;-74
2022/10/11 07:08:38;;;;;;;68.90;28.30;;;;;;;10.50;87.65;98341.00;1727587;82;21019;-75
2022/10/11 07:11:12;;;;;;;55.15;26.50;;;;;;;10.54;87.42;98340.00;1747992;81;21003;-75
2022/10/11 07:13:40;;;;;;;62.27;26.80;;;;;;;10.61;86.92;98340.73;1752296;82;20976;-75
2022/10/11 07:16:11;;;;;;;51.70;24.92;;;;;;;10.65;86.93;98343.72;1751714;82;21011;-75
2022/10/11 07:18:38;;;;;;;43.92;24.65;;;;;;;10.60;86.31;98341.20;1736921;81;21393;-76
2022/10/11 07:21:09;;;;;;;41.35;23.25;;;;;;;10.61;86.59;98343.38;1732540;82;21019;-77
2022/10/11 07:23:35;;;;;;;43.17;23.92;;;;;;;10.62;86.03;98342.46;1734756;82;21035;-77
2022/10/11 07:26:05;;;;;;;43.65;22.32;;;;;;;10.64;86.38;98344.64;1731425;82;20968;-76
2022/10/11 07:28:34;;;;;;;46.37;22.35;;;;;;;10.71;86.17;98339.59;1730469;82;21000;-77
2022/10/11 07:31:12;;;;;;;36.98;21.77;;;;;;;10.77;85.86;98335.92;1731469;82;21070;-77
2022/10/11 07:33:38;;;;;;;38.00;22.40;;;;;;;10.79;85.56;98334.09;1736492;82;20964;-77
2022/10/11 07:36:08;;;;;;;41.28;22.22;;;;;;;10.87;85.10;98329.95;1737878;82;21413;-77
2022/10/11 07:38:40;;;;;;;39.40;21.60;;;;;;;10.93;85.23;98320.03;1736531;81;20941;-77
2022/10/11 07:41:11;;;;;;;36.35;22.42;;;;;;;10.96;85.09;98326.59;1731959;82;21380;-78
2022/10/11 07:43:38;;;;;;;32.60;20.90;;;;;;;11.01;84.86;98333.09;1735676;82;20999;-78
2022/10/11 07:46:05;;;;;;;37.05;21.20;;;;;;;11.06;84.72;98331.66;1738454;81;20955;-77
2022/10/11 07:48:35;;;;;;;38.67;21.87;;;;;;;11.10;84.66;98335.98;1755057;82;20976;-76
2022/10/11 07:51:09;;;;;;;34.33;21.07;;;;;;;11.17;84.62;98335.37;1753251;82;21451;-77
2022/10/11 07:53:44;;;;;;;35.13;22.65;;;;;;;11.17;83.77;98334.89;1743561;82;21007;-77
2022/10/11 07:56:14;;;;;;;37.20;21.55;;;;;;;11.14;83.44;98337.64;1738251;81;21481;-77
2022/10/11 07:58:43;;;;;;;37.80;21.15;;;;;;;11.17;83.70;98338.87;1735702;82;20982;-77
2022/10/11 08:01:10;;;;;;;37.67;21.05;;;;;;;11.20;83.74;98336.59;1732086;81;21286;-77
2022/10/11 08:03:38;;;;;;;33.63;20.08;;;;;;;11.28;83.46;98336.38;1731802;82;21000;-76
2022/10/11 08:06:07;;;;;;;37.23;21.42;;;;;;;11.32;83.12;98337.61;1727437;82;21000;-77
2022/10/11 08:08:34;;;;;;;45.30;21.02;;;;;;;11.38;83.18;98339.20;1734779;81;20987;-78
2022/10/11 08:11:02;;;;;;;36.65;20.32;;;;;;;11.41;82.87;98341.78;1731098;82;21038;-77
2022/10/11 08:13:30;;;;;;;40.52;22.62;;;;;;;11.44;82.62;98332.86;1726953;82;20983;-78
2022/10/11 08:15:57;;;;;;;38.08;21.50;;;;;;;11.52;82.71;98340.61;1724907;82;21377;-77
2022/10/11 08:18:27;;;;;;;37.93;22.10;;;;;;;11.57;82.36;98344.89;1730500;82;20996;-76
2022/10/11 08:20:53;;;;;;;34.33;21.75;;;;;;;11.67;82.02;98340.17;1724789;82;20988;-76
2022/10/11 08:23:20;;;;;;;38.58;21.55;;;;;;;11.75;81.57;98339.95;1715276;82;21468;-75
2022/10/11 08:25:48;;;;;;;51.00;32.08;;;;;;;11.88;82.02;98344.48;1730900;82;21048;-76
2022/10/11 08:28:19;;;;;;;59.53;35.70;;;;;;;12.01;81.81;98333.03;1731861;82;21075;-75
2022/10/11 08:30:51;;;;;;;41.65;22.05;;;;;;;12.10;81.21;98329.24;1729616;82;21007;-74
2022/10/11 08:33:20;;;;;;;41.50;22.42;;;;;;;12.23;80.69;98332.39;1728001;82;20960;-75
2022/10/11 08:35:49;;;;;;;39.98;23.70;;;;;;;12.34;80.64;98330.26;1726074;82;20992;-76
2022/10/11 08:38:16;;;;;;;45.88;23.70;;;;;;;12.46;80.65;98324.16;1725507;82;20980;-76
2022/10/11 08:40:49;;;;;;;44.50;22.40;;;;;;;12.57;80.17;98325.16;1700612;83;21004;-75
2022/10/11 08:43:54;;;;;;;41.53;24.00;;;;;;;12.65;79.85;98327.08;1726971;82;21034;-76
2022/10/11 08:46:25;;;;;;;50.27;25.03;;;;;;;12.73;79.85;98325.05;1725889;83;21019;-76
2022/10/11 08:48:52;;;;;;;43.55;24.50;;;;;;;12.81;79.11;98322.14;1725516;83;21051;-76
2022/10/11 08:51:42;;;;;;;49.15;25.35;;;;;;;12.86;79.10;98324.63;1726138;83;21027;-77
2022/10/11 08:54:57;;;;;;;44.27;22.90;;;;;;;12.94;78.53;98330.56;1718996;83;20979;-77
2022/10/11 08:57:28;;;;;;;55.67;23.45;;;;;;;13.08;78.72;98326.09;1722461;82;21454;-76
2022/10/11 09:00:12;;;;;;;37.08;22.50;;;;;;;13.16;78.48;98322.72;1708220;83;21429;-75
2022/10/11 09:02:54;;;;;;;;;;;;;;;13.28;78.81;98321.42;1727994;83;20982;-76
2022/10/11 09:05:24;;;;;;;41.15;21.33;;;;;;;13.39;78.31;98321.49;1724659;83;20114;-76
2022/10/11 09:08:15;;;;;;;41.55;22.65;;;;;;;13.49;77.53;98325.59;1727516;82;21515;-75
2022/10/11 09:11:01;;;;;;;35.33;21.30;;;;;;;13.54;77.44;98319.63;1717560;82;21020;-76
2022/10/11 09:14:08;;;;;;;34.63;19.30;;;;;;;13.58;76.42;98317.75;1734779;81;21000;-75
2022/10/11 09:17:01;;;;;;;29.18;19.90;;;;;;;13.66;76.74;98326.30;1723705;81;21019;-75
2022/10/11 09:19:39;;;;;;;36.08;21.20;;;;;;;13.79;77.08;98325.38;1731728;82;20999;-75
2022/10/11 09:22:29;;;;;;;43.35;21.12;;;;;;;13.94;76.73;98327.95;1730258;82;21059;-76
2022/10/11 09:25:24;;;;;;;34.33;20.82;;;;;;;14.01;76.03;98325.04;1741074;82;21406;-75
2022/10/11 09:28:19;;;;;;;34.03;19.52;;;;;;;14.07;75.58;98323.02;1736438;81;21058;-76
2022/10/11 09:30:50;;;;;;;35.45;21.48;;;;;;;14.17;75.39;98321.32;1732335;82;20986;-75
2022/10/11 09:33:32;;;;;;;32.93;19.37;;;;;;;14.20;74.06;98328.73;1735205;81;20979;-75
2022/10/11 09:39:11;;;;;;;34.88;20.85;;;;;;;14.37;74.99;98321.88;1733312;81;21025;-76
2022/10/11 09:42:06;;;;;;;31.20;19.77;;;;;;;14.45;76.42;98322.91;1752317;80;20982;-75
2022/10/11 09:44:50;;;;;;;30.23;18.23;;;;;;;14.48;75.34;98320.98;1742438;81;21033;-76
2022/10/11 09:47:25;;;;;;;29.87;19.27;;;;;;;14.57;75.05;98314.88;1762289;80;21013;-76
2022/10/11 09:50:19;;;;;;;30.48;19.02;;;;;;;14.61;74.78;98316.01;1763726;81;20977;-76
2022/10/11 09:53:02;;;;;;;28.02;18.20;;;;;;;14.63;74.45;98312.83;1763712;81;20994;-76
2022/10/11 09:55:49;;;;;;;25.75;17.55;;;;;;;14.58;74.38;98315.27;1763495;81;21431;-76
2022/10/11 09:58:29;;;;;;;26.50;17.92;;;;;;;14.55;74.23;98311.38;1760877;81;20942;-76
2022/10/11 10:01:07;;;;;;;28.20;17.73;;;;;;;14.49;73.96;98314.70;1747818;81;21065;-77
2022/10/11 10:03:43;;;;;;;28.87;18.27;;;;;;;14.55;74.18;98312.72;1761701;81;21006;-76
2022/10/11 10:06:23;;;;;;;27.07;18.35;;;;;;;14.70;74.56;98309.90;1763643;81;21057;-76
2022/10/11 10:08:49;;;;;;;29.70;21.00;;;;;;;14.82;74.47;98305.41;1759207;81;21430;-78
2022/10/11 10:11:18;;;;;;;28.57;19.32;;;;;;;14.95;73.45;98297.74;1763632;81;20966;-74
2022/10/11 10:13:55;;;;;;;29.18;19.37;;;;;;;15.06;73.29;98291.95;1763236;80;20969;-78
2022/10/11 10:16:29;;;;;;;34.30;19.35;;;;;;;15.13;72.51;98297.44;1735441;81;21003;-78
2022/10/11 10:19:00;;;;;;;25.97;18.62;;;;;;;15.26;73.20;98294.22;1767503;80;20965;-77
2022/10/11 10:21:45;;;;;;;27.10;18.90;;;;;;;15.38;71.64;98297.70;1766041;81;20951;-78
2022/10/11 10:24:23;;;;;;;27.07;17.52;;;;;;;15.50;71.72;98290.94;1763884;81;21001;-76
2022/10/11 10:27:20;;;;;;;35.80;20.32;;;;;;;16.00;72.11;98291.84;1762497;80;21775;-76
2022/10/11 10:30:12;;;;;;;24.52;16.32;;;;;;;16.77;72.00;98283.21;1749081;81;21396;-77
2022/10/11 10:33:04;;;;;;;20.43;15.25;;;;;;;17.81;68.04;98289.03;1763478;81;21365;-76
2022/10/11 10:35:52;;;;;;;19.20;13.70;;;;;;;18.80;68.81;98278.61;1758360;80;21101;-77
2022/10/11 10:38:30;;;;;;;19.48;13.45;;;;;;;19.72;64.15;98274.96;1754248;80;21479;-77
2022/10/11 10:41:09;;;;;;;17.90;13.18;;;;;;;20.46;63.46;98268.02;1761345;80;21394;-75
2022/10/11 10:43:39;;;;;;;17.23;13.60;;;;;;;21.26;58.24;98270.84;1756523;81;21001;-75
2022/10/11 10:46:44;;;;;;;15.88;12.60;;;;;;;21.99;60.32;98264.40;1760673;81;21028;-75
2022/10/11 10:50:06;;;;;;;18.73;13.05;;;;;;;22.67;59.46;98260.79;1760096;81;21018;-75
2022/10/11 10:53:21;;;;;;;16.70;12.88;;;;;;;23.37;57.19;98255.98;1760068;81;21028;-74
2022/10/11 10:56:13;;;;;;;14.78;12.00;;;;;;;24.09;53.48;98243.61;1753634;81;21388;-75
2022/10/11 10:59:04;;;;;;;14.98;11.60;;;;;;;24.78;51.62;98251.03;1748604;81;21057;-75
2022/10/11 11:01:33;;;;;;;16.15;12.53;;;;;;;25.23;51.19;98237.77;1756261;81;21024;-76
2022/10/11 11:04:23;;;;;;;13.70;9.93;;;;;;;25.30;47.55;98232.67;1754107;81;21045;-76
2022/10/11 11:07:10;;;;;;;16.97;9.68;;;;;;;25.30;45.48;98229.48;1747940;81;20995;-75
2022/10/11 11:09:50;;;;;;;12.68;10.45;;;;;;;25.75;45.06;98227.92;1752279;81;20989;-76
2022/10/11 11:12:57;;;;;;;15.48;10.85;;;;;;;26.35;44.86;98222.55;1747584;81;21025;-75
2022/10/11 11:15:32;;;;;;;14.73;11.83;;;;;;;26.57;40.37;98224.63;1725829;81;20953;-76
2022/10/11 11:18:47;;;;;;;44.83;33.42;;;;;;;26.95;43.28;98219.88;1771673;80;20930;-75
2022/10/11 11:21:25;;;;;;;14.30;10.58;;;;;;;27.23;43.98;98215.38;1754700;81;20988;-74
2022/10/11 11:24:06;;;;;;;12.90;10.50;;;;;;;26.89;39.83;98212.63;1754179;81;20993;-74
2022/10/11 11:27:04;;;;;;;13.70;10.35;;;;;;;26.44;41.63;98210.48;1757006;81;21073;-74
2022/10/11 11:30:04;;;;;;;16.02;11.75;;;;;;;25.88;42.73;98221.77;1753742;81;20977;-74
2022/10/11 11:32:57;;;;;;;19.82;11.83;;;;;;;25.35;43.92;98212.78;1759242;81;20995;-74
2022/10/11 11:35:32;;;;;;;13.40;11.90;;;;;;;24.62;43.05;98214.91;1753363;80;20970;-74
2022/10/11 11:38:07;;;;;;;16.37;11.78;;;;;;;24.29;43.82;98214.87;1741955;81;21037;-73
2022/10/11 11:40:42;;;;;;;19.57;11.40;;;;;;;24.23;44.48;98210.84;1696750;83;21088;-74
2022/10/11 11:43:37;;;;;;;14.93;11.28;;;;;;;23.85;44.20;98211.63;1733223;82;20998;-74
2022/10/11 11:46:19;;;;;;;17.17;11.22;;;;;;;23.29;45.37;98203.83;1742648;82;21477;-75
2022/10/11 11:48:52;;;;;;;15.48;11.80;;;;;;;22.99;47.21;98198.50;1745112;82;20999;-75
2022/10/11 11:51:27;;;;;;;13.80;11.28;;;;;;;23.53;46.65;98190.73;1742600;82;21078;-75
2022/10/11 11:54:08;;;;;;;13.15;10.68;;;;;;;23.16;46.11;98186.37;1740488;81;20979;-75
2022/10/11 11:56:59;;;;;;;13.90;10.08;;;;;;;22.80;46.93;98182.87;1726710;82;21032;-77